Time;durP1;ratioP1;P1;durP2;ratioP2;P2;SDS_P1;SDS_P2;PMS_P1;PMS_P2;Temp;Humidity;BMP_temperature;BMP_pressure;BME280_temperature;BME280_humidity;BME280_pressure;Samples;Min_cycle;Max_cycle;Signal;HPM_P1;HPM_P2
2023/07/04 00:01:01;;;;;;;14.10;2.75;;;;;;;16.80;87.31;99744.50;4976441;28;20035;-75
2023/07/04 00:03:30;;;;;;;14.23;2.67;;;;;;;16.74;86.80;99740.91;5016479;28;20108;-75
2023/07/04 00:05:56;;;;;;;23.15;3.33;;;;;;;16.70;86.79;99749.88;4976843;28;20037;-75
2023/07/04 00:08:26;;;;;;;11.05;2.10;;;;;;;16.67;86.40;99752.03;4999120;28;20025;-75
2023/07/04 00:10:52;;;;;;;12.40;2.40;;;;;;;16.57;86.04;99729.44;5078835;28;20070;-75
2023/07/04 00:13:18;;;;;;;11.85;2.42;;;;;;;16.78;85.84;99761.06;5042330;28;20027;-75
2023/07/04 00:15:51;;;;;;;13.80;2.50;;;;;;;16.74;85.95;99757.22;5044664;28;20164;-75
2023/07/04 00:18:20;;;;;;;15.98;2.53;;;;;;;16.71;85.61;99756.94;5049279;28;20031;-75
2023/07/04 00:20:47;;;;;;;10.75;2.35;;;;;;;16.66;85.70;99744.97;4980190;28;20448;-76
2023/07/04 00:23:13;;;;;;;15.57;2.58;;;;;;;16.64;86.04;99749.03;5063776;28;20050;-75
2023/07/04 00:25:38;;;;;;;11.65;2.50;;;;;;;16.56;86.85;99738.69;5047631;28;20100;-76
2023/07/04 00:28:05;;;;;;;14.20;2.88;;;;;;;16.66;86.91;99750.41;5063150;28;20537;-77
2023/07/04 00:30:35;;;;;;;15.05;2.65;;;;;;;16.71;87.49;99751.50;5046981;28;20024;-75
2023/07/04 00:33:00;;;;;;;13.98;2.88;;;;;;;16.70;87.90;99739.81;5046605;28;20036;-75
2023/07/04 00:35:26;;;;;;;12.07;2.40;;;;;;;16.67;88.23;99737.63;5081733;28;20195;-75
2023/07/04 00:37:51;;;;;;;16.20;2.75;;;;;;;16.73;88.01;99722.19;5078289;28;20028;-75
2023/07/04 00:40:17;;;;;;;15.35;2.85;;;;;;;16.74;87.85;99735.47;5046361;28;20139;-76
2023/07/04 00:42:45;;;;;;;14.60;2.90;;;;;;;16.34;89.13;99690.78;5091465;28;20105;-74
2023/07/04 00:45:19;;;;;;;17.88;2.70;;;;;;;16.63;88.94;99725.66;5055398;28;20063;-78
2023/07/04 00:47:53;;;;;;;16.98;2.50;;;;;;;16.82;89.01;99731.44;5065616;28;20035;-76
2023/07/04 00:50:23;;;;;;;18.67;2.75;;;;;;;16.73;89.88;99723.00;5083178;28;20035;-77
2023/07/04 00:52:50;;;;;;;12.95;2.55;;;;;;;16.84;89.55;99730.09;5064105;28;20027;-75
2023/07/04 00:55:15;;;;;;;9.65;1.90;;;;;;;16.71;90.41;99719.72;5063144;28;20040;-75
2023/07/04 00:57:41;;;;;;;16.77;2.72;;;;;;;16.78;90.17;99730.34;5046325;28;20131;-75
2023/07/04 01:00:16;;;;;;;25.45;3.42;;;;;;;16.77;91.21;99729.56;5063325;28;20048;-75
2023/07/04 01:02:45;;;;;;;11.48;2.45;;;;;;;16.71;91.56;99729.75;5080825;28;20339;-75
2023/07/04 01:05:14;;;;;;;18.73;3.40;;;;;;;16.53;92.63;99728.34;5045474;28;20030;-75
2023/07/04 01:07:39;;;;;;;18.58;2.80;;;;;;;16.53;92.85;99736.50;5062895;28;20397;-76
2023/07/04 01:10:17;;;;;;;13.40;2.40;;;;;;;16.45;92.78;99725.03;5076394;28;20035;-76
2023/07/04 01:12:45;;;;;;;14.77;2.58;;;;;;;16.41;93.57;99733.97;5046597;28;20034;-75
2023/07/04 01:15:11;;;;;;;13.75;2.42;;;;;;;16.45;93.17;99727.75;5029773;28;20054;-76
2023/07/04 01:17:37;;;;;;;12.68;2.42;;;;;;;16.48;93.21;99734.56;5031871;28;20039;-75
2023/07/04 01:20:08;;;;;;;16.42;2.70;;;;;;;16.46;93.32;99728.59;4978946;28;20026;-75
2023/07/04 01:22:38;;;;;;;14.50;2.30;;;;;;;16.47;92.97;99730.22;5045516;28;20118;-75
2023/07/04 01:25:22;;;;;;;10.00;2.33;;;;;;;16.42;93.33;99728.28;4979011;28;20057;-76
2023/07/04 01:27:51;;;;;;;20.33;2.80;;;;;;;16.27;93.81;99720.06;4978462;28;20030;-75
2023/07/04 01:30:18;;;;;;;12.35;2.20;;;;;;;16.35;93.41;99727.69;5046300;28;20037;-75
2023/07/04 01:32:44;;;;;;;16.73;2.47;;;;;;;16.35;93.56;99729.59;4978763;28;20122;-75
2023/07/04 01:35:12;;;;;;;19.05;3.33;;;;;;;16.27;93.47;99711.09;5043825;28;20042;-75
2023/07/04 01:37:38;;;;;;;13.18;2.50;;;;;;;16.33;93.25;99719.00;4974406;28;20038;-75
2023/07/04 01:40:07;;;;;;;11.85;2.67;;;;;;;16.34;93.22;99717.91;5031809;28;20027;-75
2023/07/04 01:42:33;;;;;;;18.20;2.83;;;;;;;16.36;93.16;99715.78;5052176;28;20042;-76
2023/07/04 01:45:01;;;;;;;12.85;2.40;;;;;;;16.36;93.06;99718.50;5043622;28;20047;-75
2023/07/04 01:47:28;;;;;;;20.52;2.92;;;;;;;16.29;92.93;99700.78;4977627;28;20050;-75
2023/07/04 01:49:54;;;;;;;16.67;2.50;;;;;;;16.40;92.61;99707.91;5028283;28;20038;-75
2023/07/04 01:52:20;;;;;;;12.18;2.13;;;;;;;16.38;92.97;99720.94;4979076;28;20076;-74
2023/07/04 01:54:45;;;;;;;15.63;2.70;;;;;;;16.25;92.85;99700.50;4979340;28;20035;-75
2023/07/04 01:57:10;;;;;;;10.07;2.30;;;;;;;16.34;92.85;99708.97;4978890;28;20491;-75
2023/07/04 01:59:36;;;;;;;16.92;2.92;;;;;;;16.45;92.32;99705.22;5045310;28;20037;-75
2023/07/04 02:02:02;;;;;;;10.32;2.45;;;;;;;16.42;92.44;99703.88;4978661;28;20046;-75
2023/07/04 02:04:28;;;;;;;15.40;2.97;;;;;;;16.51;91.93;99711.47;5045116;28;20038;-74
2023/07/04 02:06:53;;;;;;;17.20;2.83;;;;;;;16.38;92.19;99689.16;5028172;28;20057;-76
2023/07/04 02:09:18;;;;;;;17.98;2.70;;;;;;;16.37;91.70;99687.53;5045189;28;20034;-75
2023/07/04 02:11:46;;;;;;;15.45;3.17;;;;;;;16.40;91.91;99703.28;5029137;28;20093;-76
2023/07/04 02:14:13;;;;;;;17.70;2.80;;;;;;;16.38;91.84;99705.44;5043482;28;20122;-75
2023/07/04 02:16:38;;;;;;;15.43;2.83;;;;;;;16.38;91.87;99700.03;4978235;28;20042;-75
2023/07/04 02:19:04;;;;;;;15.98;2.50;;;;;;;16.45;91.48;99706.03;5045112;28;20042;-75
2023/07/04 02:21:29;;;;;;;15.77;3.03;;;;;;;16.44;91.07;99698.97;5045063;28;20082;-75
2023/07/04 02:23:55;;;;;;;19.17;3.35;;;;;;;16.29;91.03;99682.63;5028213;28;20458;-74
2023/07/04 02:26:20;;;;;;;17.77;2.85;;;;;;;16.32;90.89;99682.06;5044989;28;20027;-75
2023/07/04 02:28:46;;;;;;;15.57;2.42;;;;;;;16.47;90.56;99704.97;4978229;28;20031;-74
2023/07/04 02:31:13;;;;;;;14.43;2.72;;;;;;;16.49;90.50;99702.78;4973167;28;20037;-75
2023/07/04 02:33:38;;;;;;;16.77;2.47;;;;;;;16.48;90.88;99706.59;4978829;28;20381;-75
2023/07/04 02:36:05;;;;;;;14.05;2.40;;;;;;;16.37;91.13;99697.59;5066936;28;20020;-74
2023/07/04 02:38:30;;;;;;;15.02;2.78;;;;;;;16.53;90.68;99707.44;5060358;28;20019;-75
2023/07/04 02:40:56;;;;;;;17.75;2.67;;;;;;;16.49;91.13;99700.91;5044030;28;20030;-75
2023/07/04 02:43:21;;;;;;;13.98;2.50;;;;;;;16.48;91.76;99698.44;5011678;28;20122;-75
2023/07/04 02:45:46;;;;;;;18.00;2.70;;;;;;;16.54;91.79;99703.63;5061625;28;20138;-74
2023/07/04 02:48:14;;;;;;;14.73;2.70;;;;;;;16.55;91.87;99696.28;5061193;28;20036;-74
2023/07/04 02:50:39;;;;;;;10.65;2.47;;;;;;;16.50;92.21;99701.72;5061537;28;20430;-74
2023/07/04 02:53:05;;;;;;;12.80;3.25;;;;;;;16.48;91.85;99704.69;5061736;28;20090;-75
2023/07/04 02:55:30;;;;;;;13.25;2.60;;;;;;;16.52;91.59;99704.97;5040377;28;20092;-75
2023/07/04 02:57:55;;;;;;;14.93;2.67;;;;;;;16.52;91.42;99699.53;5060935;28;20032;-74
2023/07/04 03:00:21;;;;;;;20.23;2.72;;;;;;;16.54;91.49;99695.47;5044585;28;20038;-75
2023/07/04 03:02:46;;;;;;;14.10;2.10;;;;;;;16.43;91.41;99674.81;5010661;28;20027;-75
2023/07/04 03:05:12;;;;;;;13.48;2.35;;;;;;;16.59;91.77;99695.50;5044520;28;20058;-75
2023/07/04 03:07:37;;;;;;;11.05;2.40;;;;;;;16.35;92.64;99678.81;4978902;28;20035;-75
2023/07/04 03:10:03;;;;;;;16.85;2.15;;;;;;;16.56;91.74;99687.09;5043774;28;20772;-75
2023/07/04 03:12:29;;;;;;;10.68;2.22;;;;;;;16.54;92.01;99691.94;5043651;28;20035;-75
2023/07/04 03:14:54;;;;;;;10.77;2.58;;;;;;;16.64;91.78;99691.97;4977072;28;20034;-76
2023/07/04 03:17:20;;;;;;;17.70;2.78;;;;;;;16.84;91.02;99692.06;4977155;28;20031;-76
2023/07/04 03:19:46;;;;;;;13.85;2.38;;;;;;;17.31;88.57;99693.78;5042554;28;20057;-75
2023/07/04 03:22:11;;;;;;;15.82;2.80;;;;;;;17.09;88.94;99682.34;5044118;28;20076;-75
2023/07/04 03:24:37;;;;;;;17.00;2.50;;;;;;;16.88;90.35;99687.72;5041664;28;20087;-75
2023/07/04 03:27:03;;;;;;;14.10;2.33;;;;;;;16.68;91.36;99672.16;5022841;28;20045;-75
2023/07/04 03:29:28;;;;;;;17.60;2.38;;;;;;;16.76;91.49;99684.47;5035626;28;20050;-76
2023/07/04 03:31:54;;;;;;;12.07;2.00;;;;;;;16.65;91.27;99661.84;4992636;28;20088;-74
2023/07/04 03:34:19;;;;;;;15.80;2.28;;;;;;;16.88;90.96;99682.28;5055220;28;20113;-75
2023/07/04 03:36:44;;;;;;;11.32;2.50;;;;;;;16.90;90.94;99671.19;5044341;28;20041;-74
2023/07/04 03:39:11;;;;;;;15.05;2.20;;;;;;;18.19;84.80;99672.78;5027212;28;20031;-75
2023/07/04 03:41:36;;;;;;;13.63;3.08;;;;;;;18.66;82.42;99658.69;5045460;28;20037;-74
2023/07/04 03:44:01;;;;;;;12.00;2.33;;;;;;;18.14;83.13;99610.16;4999678;28;20106;-75
2023/07/04 03:46:28;;;;;;;15.02;2.53;;;;;;;18.15;85.35;99661.63;4974846;28;20084;-74
2023/07/04 03:48:53;;;;;;;17.20;2.58;;;;;;;18.41;84.15;99659.63;5039056;28;20030;-76
2023/07/04 03:51:19;;;;;;;14.00;2.50;;;;;;;18.31;84.79;99659.69;5044682;28;20066;-75
2023/07/04 03:53:45;;;;;;;14.15;2.50;;;;;;;17.90;86.84;99648.91;5047372;28;20023;-74
2023/07/04 03:56:11;;;;;;;14.45;2.35;;;;;;;17.83;87.52;99660.06;4980467;28;20042;-75
2023/07/04 03:58:36;;;;;;;13.63;2.50;;;;;;;17.70;88.25;99660.59;4980189;28;20026;-74
2023/07/04 04:01:04;;;;;;;17.60;2.58;;;;;;;17.63;88.37;99670.94;5064213;28;20048;-75
2023/07/04 04:03:36;;;;;;;13.73;2.72;;;;;;;17.52;88.61;99648.38;5063369;28;20025;-74
2023/07/04 04:06:02;;;;;;;12.60;2.75;;;;;;;17.44;89.20;99659.00;5048044;28;20086;-75
2023/07/04 04:08:28;;;;;;;17.70;2.53;;;;;;;17.32;89.60;99646.50;5064251;28;20028;-75
2023/07/04 04:10:53;;;;;;;16.10;2.30;;;;;;;17.39;89.33;99665.25;5064123;28;20120;-75
2023/07/04 04:13:19;;;;;;;11.25;1.95;;;;;;;17.33;89.94;99661.72;5047546;28;20058;-75
2023/07/04 04:15:44;;;;;;;14.95;2.60;;;;;;;17.29;90.17;99654.38;5082299;28;20020;-75
2023/07/04 04:18:10;;;;;;;18.38;2.78;;;;;;;17.38;89.93;99669.88;5063890;28;20028;-75
2023/07/04 04:20:35;;;;;;;10.32;2.05;;;;;;;17.35;90.17;99680.47;5062665;28;20433;-74
2023/07/04 04:23:01;;;;;;;15.93;2.30;;;;;;;17.36;89.42;99660.34;5046204;28;20602;-74
2023/07/04 04:25:26;;;;;;;8.35;2.22;;;;;;;18.11;85.77;99665.97;5080429;28;20033;-75
2023/07/04 04:27:52;;;;;;;10.70;2.40;;;;;;;19.40;78.01;99654.16;5047091;28;20032;-74
2023/07/04 04:30:17;;;;;;;11.23;1.83;;;;;;;19.69;75.05;99650.63;5091354;28;20029;-74
2023/07/04 04:32:44;;;;;;;8.10;1.65;;;;;;;19.67;75.06;99671.94;5083476;28;20035;-75
2023/07/04 04:35:11;;;;;;;8.80;1.67;;;;;;;20.72;71.02;99666.69;5066140;28;20029;-74
2023/07/04 04:37:36;;;;;;;9.45;1.77;;;;;;;21.16;67.84;99669.06;5068553;28;20028;-74
2023/07/04 04:40:05;;;;;;;6.15;1.58;;;;;;;21.45;65.79;99651.66;5068099;28;20066;-75
2023/07/04 04:42:34;;;;;;;10.27;2.00;;;;;;;20.77;67.70;99680.28;5086752;28;20116;-75
2023/07/04 04:45:00;;;;;;;10.35;1.92;;;;;;;20.02;71.47;99662.56;5036283;28;20040;-74
2023/07/04 04:47:26;;;;;;;9.95;1.75;;;;;;;20.80;68.62;99669.56;5050912;28;20031;-74
2023/07/04 04:49:52;;;;;;;9.15;1.75;;;;;;;21.21;66.10;99668.16;5052777;28;20306;-74
2023/07/04 04:52:23;;;;;;;8.68;1.70;;;;;;;21.02;66.48;99665.44;5066646;28;20025;-74
2023/07/04 04:54:48;;;;;;;11.48;1.80;;;;;;;21.46;64.80;99658.78;5077029;28;20025;-73
2023/07/04 04:57:15;;;;;;;6.68;1.73;;;;;;;21.83;63.36;99663.31;5057148;28;20035;-75
2023/07/04 04:59:41;;;;;;;13.85;2.33;;;;;;;21.88;63.56;99655.00;5056741;28;20024;-75
2023/07/04 05:02:06;;;;;;;8.73;1.90;;;;;;;21.27;65.45;99656.03;5037857;28;20074;-74
2023/07/04 05:04:33;;;;;;;12.57;2.30;;;;;;;21.30;65.73;99666.38;5056121;28;20044;-74
2023/07/04 05:06:59;;;;;;;10.38;1.73;;;;;;;20.96;66.78;99670.19;5074007;28;20445;-75
2023/07/04 05:09:24;;;;;;;9.82;1.88;;;;;;;21.04;66.81;99672.22;5056493;28;20024;-76
2023/07/04 05:11:50;;;;;;;7.47;1.77;;;;;;;21.74;64.80;99678.81;5044462;28;20032;-74
2023/07/04 05:14:15;;;;;;;9.27;2.05;;;;;;;21.72;64.76;99673.63;5027004;28;20030;-75
2023/07/04 05:16:41;;;;;;;8.77;1.75;;;;;;;21.74;64.51;99673.31;5044220;28;20740;-75
2023/07/04 05:19:06;;;;;;;8.63;1.70;;;;;;;21.64;64.02;99671.56;5045231;28;20397;-75
2023/07/04 05:21:32;;;;;;;12.07;2.20;;;;;;;21.86;63.92;99690.09;5058380;28;20040;-75
2023/07/04 05:23:57;;;;;;;7.50;2.03;;;;;;;21.81;63.26;99660.84;5060796;28;20028;-74
2023/07/04 05:26:25;;;;;;;9.45;1.80;;;;;;;21.14;66.02;99678.66;5045937;28;20092;-75
2023/07/04 05:28:52;;;;;;;10.45;1.80;;;;;;;20.58;67.83;99686.53;5026790;28;20050;-75
2023/07/04 05:31:20;;;;;;;11.68;2.22;;;;;;;19.95;69.42;99682.03;5038314;28;20033;-74
2023/07/04 05:33:46;;;;;;;9.88;1.83;;;;;;;19.63;70.67;99685.31;5050964;28;20039;-74
2023/07/04 05:36:11;;;;;;;9.45;1.73;;;;;;;19.37;72.30;99682.00;5043187;28;20067;-74
2023/07/04 05:38:38;;;;;;;10.07;2.10;;;;;;;19.36;73.03;99679.53;5044193;28;20023;-74
2023/07/04 05:41:14;;;;;;;11.13;2.40;;;;;;;19.18;73.71;99684.56;5060249;28;20044;-74
2023/07/04 05:43:41;;;;;;;14.07;2.22;;;;;;;18.93;74.80;99673.81;5060093;28;20132;-74
2023/07/04 05:46:08;;;;;;;8.52;1.70;;;;;;;18.95;75.51;99685.28;5076369;28;20093;-74
2023/07/04 05:48:34;;;;;;;6.88;1.60;;;;;;;18.88;76.01;99690.22;5056705;28;20032;-74
2023/07/04 05:51:12;;;;;;;13.30;1.85;;;;;;;18.74;76.92;99673.66;5073788;28;20031;-73
2023/07/04 05:53:40;;;;;;;12.27;2.25;;;;;;;18.70;77.53;99669.84;5074043;28;20024;-74
2023/07/04 05:56:14;;;;;;;7.47;1.55;;;;;;;18.86;77.72;99684.22;5052695;28;20443;-74
2023/07/04 05:58:41;;;;;;;9.80;1.83;;;;;;;18.75;78.17;99687.00;4972247;28;20477;-74
2023/07/04 06:01:10;;;;;;;7.68;1.55;;;;;;;18.80;78.08;99683.44;5004045;28;20390;-73
2023/07/04 06:03:37;;;;;;;9.27;1.98;;;;;;;18.83;78.08;99682.88;4972148;28;20092;-75
2023/07/04 06:06:04;;;;;;;8.35;1.70;;;;;;;18.95;78.06;99685.28;4971520;28;20031;-74
2023/07/04 06:08:30;;;;;;;13.38;1.90;;;;;;;18.93;78.25;99679.28;4971643;28;20031;-74
2023/07/04 06:11:04;;;;;;;8.15;2.00;;;;;;;18.87;78.43;99683.13;4974769;28;20037;-75
2023/07/04 06:13:30;;;;;;;11.50;1.90;;;;;;;18.66;79.09;99682.41;4975438;28;20034;-74
2023/07/04 06:15:58;;;;;;;9.00;2.10;;;;;;;18.62;79.71;99684.06;4978481;28;20038;-75
2023/07/04 06:18:24;;;;;;;9.73;1.85;;;;;;;18.58;79.53;99683.81;4975068;28;20555;-76
2023/07/04 06:20:50;;;;;;;9.27;2.10;;;;;;;18.72;78.78;99687.56;4976809;28;20065;-73
2023/07/04 06:23:17;;;;;;;10.10;1.45;;;;;;;18.83;79.16;99692.97;4994217;28;20046;-78
2023/07/04 06:25:42;;;;;;;13.40;2.20;;;;;;;18.93;79.01;99687.47;4977527;28;20034;-72
2023/07/04 06:28:08;;;;;;;15.02;2.15;;;;;;;19.08;78.62;99690.09;4984266;28;20129;-73
2023/07/04 06:30:38;;;;;;;10.00;1.80;;;;;;;19.13;78.72;99697.41;5014752;28;20035;-74
2023/07/04 06:33:04;;;;;;;8.40;1.60;;;;;;;19.08;78.86;99706.47;5010724;28;20019;-74
2023/07/04 06:35:30;;;;;;;10.80;2.58;;;;;;;18.95;79.53;99698.91;4970732;28;20035;-73
2023/07/04 06:37:56;;;;;;;8.65;2.00;;;;;;;18.56;79.37;99650.56;4978696;28;20101;-77
2023/07/04 06:40:21;;;;;;;14.13;2.13;;;;;;;18.87;79.12;99688.56;4975952;28;20039;-75
2023/07/04 06:42:47;;;;;;;8.73;1.70;;;;;;;18.81;79.82;99706.03;4974384;28;20047;-74
2023/07/04 06:45:12;;;;;;;11.57;1.75;;;;;;;18.52;79.80;99687.63;5030929;28;20048;-74
2023/07/04 06:47:38;;;;;;;11.13;1.90;;;;;;;18.79;79.69;99714.53;5061113;28;20507;-77
2023/07/04 06:50:05;;;;;;;9.10;1.75;;;;;;;18.69;79.47;99704.44;5033418;28;20033;-78
2023/07/04 06:52:32;;;;;;;8.95;2.22;;;;;;;19.02;78.73;99716.56;5003126;28;20050;-75
2023/07/04 06:54:58;;;;;;;10.05;1.98;;;;;;;19.05;79.13;99720.66;5027474;28;20042;-78
2023/07/04 06:57:23;;;;;;;7.55;1.83;;;;;;;19.19;78.54;99727.09;4974196;28;20041;-72
2023/07/04 06:59:52;;;;;;;8.13;1.60;;;;;;;19.21;78.07;99727.66;4975944;28;20170;-75
2023/07/04 07:02:17;;;;;;;10.85;2.05;;;;;;;18.94;77.78;99668.09;5041837;28;20034;-72
2023/07/04 07:04:43;;;;;;;8.55;1.98;;;;;;;19.67;76.65;99719.16;5015466;28;20114;-71
2023/07/04 07:07:10;;;;;;;8.43;1.42;;;;;;;19.82;75.31;99709.19;4968352;28;20031;-73
2023/07/04 07:09:41;;;;;;;9.55;1.50;;;;;;;20.15;73.82;99734.81;4973893;28;20035;-74
2023/07/04 07:12:08;;;;;;;7.28;1.63;;;;;;;19.99;72.45;99739.59;5021777;28;20062;-74
2023/07/04 07:14:34;;;;;;;5.68;1.40;;;;;;;19.78;73.13;99743.63;5034773;28;20019;-73
2023/07/04 07:17:00;;;;;;;7.70;1.52;;;;;;;19.88;71.95;99736.16;5060710;28;20042;-75
2023/07/04 07:19:26;;;;;;;5.63;1.45;;;;;;;20.15;70.94;99741.09;5047096;28;20035;-74
2023/07/04 07:21:52;;;;;;;6.00;1.30;;;;;;;19.78;70.65;99719.06;5040971;28;20047;-72
2023/07/04 07:24:17;;;;;;;5.78;1.20;;;;;;;20.11;69.62;99734.56;4974073;28;20058;-73
2023/07/04 07:26:43;;;;;;;5.40;1.30;;;;;;;20.19;69.15;99747.59;5044649;28;20451;-73
2023/07/04 07:29:08;;;;;;;4.70;1.30;;;;;;;20.14;69.01;99744.94;5042695;28;20031;-72
2023/07/04 07:31:34;;;;;;;5.75;1.40;;;;;;;20.12;69.57;99736.19;5066959;28;20073;-72
2023/07/04 07:34:01;;;;;;;8.25;1.30;;;;;;;20.35;69.42;99736.50;5010850;28;20422;-73
2023/07/04 07:36:30;;;;;;;5.80;1.13;;;;;;;20.68;68.82;99739.44;4973460;28;20077;-73
2023/07/04 07:38:57;;;;;;;9.35;1.67;;;;;;;20.93;67.99;99730.13;5070050;28;20141;-73
2023/07/04 07:41:29;;;;;;;6.43;1.40;;;;;;;20.73;68.81;99733.91;5056905;28;20034;-74
2023/07/04 07:43:55;;;;;;;5.68;1.17;;;;;;;21.02;68.58;99731.88;5038089;28;20051;-73
2023/07/04 07:46:21;;;;;;;5.10;1.50;;;;;;;21.14;67.88;99736.13;4973053;28;20121;-73
2023/07/04 07:48:48;;;;;;;4.57;1.10;;;;;;;21.00;68.41;99738.78;4973427;28;20042;-73
2023/07/04 07:51:13;;;;;;;12.88;1.90;;;;;;;21.12;67.73;99728.19;4972726;28;20035;-73
2023/07/04 07:53:43;;;;;;;7.63;1.50;;;;;;;21.16;68.17;99733.88;5056362;28;20082;-73
2023/07/04 07:56:11;;;;;;;7.82;1.67;;;;;;;21.19;68.05;99741.50;5009969;28;20028;-72
2023/07/04 07:58:37;;;;;;;9.68;1.63;;;;;;;21.19;68.35;99733.28;5040968;28;20088;-73
2023/07/04 08:01:31;;;;;;;7.38;1.63;;;;;;;20.88;68.39;99725.50;5004419;28;20037;-72
2023/07/04 08:03:57;;;;;;;9.70;1.70;;;;;;;20.67;69.53;99738.63;5052830;28;20082;-72
2023/07/04 08:06:26;;;;;;;9.05;1.60;;;;;;;20.57;69.51;99736.84;5041649;28;20031;-72
2023/07/04 08:08:53;;;;;;;9.05;1.95;;;;;;;20.33;69.98;99745.00;5020890;28;20390;-73
2023/07/04 08:11:19;;;;;;;8.65;1.85;;;;;;;20.20;70.63;99748.44;5039685;28;20066;-72
2023/07/04 08:13:46;;;;;;;9.73;1.60;;;;;;;20.02;71.59;99749.13;5045166;28;20036;-72
2023/07/04 08:16:16;;;;;;;9.52;1.80;;;;;;;19.90;72.13;99750.34;4995053;28;20394;-72
2023/07/04 08:18:41;;;;;;;7.78;1.85;;;;;;;19.71;72.78;99750.22;5040189;28;20054;-72
2023/07/04 08:21:06;;;;;;;8.07;1.50;;;;;;;19.49;72.94;99752.53;5037783;28;20060;-73
2023/07/04 08:23:33;;;;;;;11.77;1.83;;;;;;;19.42;73.60;99739.22;5036079;28;20126;-73
2023/07/04 08:25:58;;;;;;;12.60;1.85;;;;;;;19.46;73.43;99755.84;5046501;28;20501;-73
2023/07/04 08:28:25;;;;;;;7.47;1.60;;;;;;;19.58;73.24;99748.13;5024690;28;20035;-72
2023/07/04 08:30:50;;;;;;;8.98;1.60;;;;;;;19.63;73.33;99753.56;5054821;28;20125;-72
2023/07/04 08:33:17;;;;;;;6.13;1.40;;;;;;;19.54;73.67;99757.97;5065796;28;20084;-73
2023/07/04 08:36:07;;;;;;;5.97;1.55;;;;;;;19.41;74.62;99774.97;5046014;28;20039;-73
2023/07/04 08:38:33;;;;;;;7.90;1.60;;;;;;;19.22;76.63;99767.44;4960635;28;20037;-73
2023/07/04 08:40:59;;;;;;;9.32;1.75;;;;;;;19.22;78.20;99764.72;5010672;28;20565;-73
2023/07/04 08:43:47;;;;;;;7.97;1.50;;;;;;;19.23;78.82;99774.53;5033415;28;20067;-72
2023/07/04 08:46:15;;;;;;;6.80;1.50;;;;;;;19.24;79.57;99757.09;5038080;28;20039;-73
2023/07/04 08:48:42;;;;;;;9.18;1.48;;;;;;;19.25;79.15;99752.44;5038131;28;20119;-72
2023/07/04 08:51:10;;;;;;;10.95;1.90;;;;;;;19.53;78.32;99772.69;5027580;28;20444;-73
2023/07/04 08:53:40;;;;;;;8.40;2.00;;;;;;;19.66;77.91;99772.09;5053233;28;20115;-73
2023/07/04 08:56:22;;;;;;;6.82;1.50;;;;;;;19.84;77.24;99748.75;5055388;28;20378;-72
2023/07/04 08:59:08;;;;;;;8.45;1.63;;;;;;;20.27;76.41;99776.22;5055246;28;20506;-72
2023/07/04 09:01:40;;;;;;;7.90;1.70;;;;;;;20.53;75.11;99768.59;5055119;28;20476;-72
2023/07/04 09:04:47;;;;;;;6.35;1.30;;;;;;;20.62;72.86;99764.09;5055379;28;20512;-72
2023/07/04 09:07:20;;;;;;;6.18;1.35;;;;;;;20.37;70.21;99759.72;5029564;28;20120;-72
2023/07/04 09:10:01;;;;;;;5.88;1.40;;;;;;;20.66;69.23;99761.59;5021796;28;20529;-72
2023/07/04 09:12:31;;;;;;;6.93;1.25;;;;;;;20.64;68.58;99770.09;5047793;28;20023;-72
2023/07/04 09:15:13;;;;;;;5.45;1.60;;;;;;;20.53;68.16;99762.28;5048912;28;20107;-73
2023/07/04 09:17:48;;;;;;;4.95;1.40;;;;;;;20.35;67.74;99778.31;5010877;28;20393;-72
2023/07/04 09:20:14;;;;;;;10.55;1.60;;;;;;;20.06;70.46;99764.66;4971877;28;20096;-73
2023/07/04 09:22:39;;;;;;;5.78;1.50;;;;;;;20.01;73.31;99789.28;5054870;28;20036;-73
2023/07/04 09:25:06;;;;;;;6.47;1.83;;;;;;;20.03;74.68;99784.34;5055601;28;20036;-73
2023/07/04 09:27:32;;;;;;;7.93;1.58;;;;;;;20.00;75.94;99787.66;5056065;28;20028;-73
2023/07/04 09:29:57;;;;;;;9.38;1.70;;;;;;;19.73;77.49;99787.31;5075019;28;20475;-73
2023/07/04 09:32:23;;;;;;;4.85;1.40;;;;;;;19.76;77.94;99793.03;5038896;28;20029;-73
2023/07/04 09:34:59;;;;;;;8.00;1.70;;;;;;;19.97;77.77;99793.69;5073251;28;20035;-73
2023/07/04 09:37:25;;;;;;;7.32;1.80;;;;;;;19.98;78.18;99789.06;5073235;28;20031;-73
2023/07/04 09:39:54;;;;;;;7.95;1.85;;;;;;;19.62;79.80;99809.22;5039698;28;20034;-72
2023/07/04 09:42:22;;;;;;;12.13;2.65;;;;;;;19.23;82.71;99822.81;4975432;28;20114;-74
2023/07/04 09:44:51;;;;;;;12.20;1.90;;;;;;;18.55;86.50;99812.41;5047450;28;20060;-74
2023/07/04 09:47:24;;;;;;;9.23;1.73;;;;;;;18.10;87.73;99835.06;4982893;28;20026;-74
2023/07/04 09:50:11;;;;;;;11.75;2.30;;;;;;;17.79;88.31;99844.03;5043719;28;20033;-74
2023/07/04 09:52:38;;;;;;;16.08;2.20;;;;;;;17.46;89.80;99820.00;4978235;28;20092;-76
2023/07/04 09:55:26;;;;;;;12.38;2.10;;;;;;;17.36;91.96;99839.81;5033217;28;20042;-77
2023/07/04 09:57:52;;;;;;;15.25;2.40;;;;;;;17.37;91.07;99844.97;4981157;28;20027;-76
2023/07/04 10:00:21;;;;;;;8.57;1.73;;;;;;;17.27;92.07;99820.47;4983407;28;20027;-77
2023/07/04 10:02:52;;;;;;;12.98;2.22;;;;;;;17.37;92.67;99844.97;4979003;28;20117;-75
2023/07/04 10:05:30;;;;;;;10.40;1.80;;;;;;;17.43;92.61;99839.56;5047398;28;20427;-75
2023/07/04 10:08:08;;;;;;;9.25;1.67;;;;;;;17.55;92.72;99829.28;5048593;28;20038;-75
2023/07/04 10:10:38;;;;;;;10.38;1.50;;;;;;;17.77;92.26;99837.22;4981282;28;20039;-77
2023/07/04 10:13:07;;;;;;;11.07;1.92;;;;;;;18.07;91.78;99833.69;5050003;28;20104;-79
2023/07/04 10:15:38;;;;;;;13.25;1.90;;;;;;;18.34;92.50;99840.75;4987608;28;20026;-76
2023/07/04 10:18:04;;;;;;;10.55;1.50;;;;;;;18.73;91.31;99839.06;4984657;28;20038;-74
2023/07/04 10:20:40;;;;;;;12.68;1.83;;;;;;;19.03;91.59;99837.34;5048292;28;20030;-76
2023/07/04 10:23:06;;;;;;;10.02;1.70;;;;;;;19.16;91.51;99825.84;4986538;28;20030;-75
2023/07/04 10:25:34;;;;;;;9.15;1.90;;;;;;;19.49;91.10;99829.75;4981142;28;20035;-76
2023/07/04 10:28:13;;;;;;;7.55;1.40;;;;;;;19.68;91.84;99824.47;5046358;28;20042;-75
2023/07/04 10:30:43;;;;;;;12.35;1.80;;;;;;;19.79;91.96;99827.13;4977951;28;20038;-76
2023/07/04 10:33:24;;;;;;;7.38;1.70;;;;;;;19.82;91.75;99815.66;5048080;28;20023;-78
2023/07/04 10:35:50;;;;;;;8.18;1.90;;;;;;;20.23;89.92;99839.88;5054628;28;20496;-77
2023/07/04 10:38:20;;;;;;;9.05;1.42;;;;;;;20.15;90.07;99835.88;4980100;28;20035;-75
2023/07/04 10:40:46;;;;;;;7.25;1.60;;;;;;;20.10;89.01;99838.66;4987721;28;20026;-76
2023/07/04 10:43:30;;;;;;;8.63;2.00;;;;;;;20.06;89.04;99821.19;5038939;28;20485;-76
2023/07/04 10:45:58;;;;;;;5.85;1.60;;;;;;;20.10;88.08;99835.94;5053001;28;20027;-74
2023/07/04 10:48:28;;;;;;;6.38;1.52;;;;;;;20.15;87.98;99841.31;5053796;28;20058;-79
2023/07/04 10:51:01;;;;;;;9.30;1.80;;;;;;;20.39;87.51;99838.66;5044116;28;20125;-74
2023/07/04 10:53:27;;;;;;;7.50;1.70;;;;;;;20.48;87.63;99836.13;4979342;28;20413;-74
2023/07/04 10:56:02;;;;;;;10.82;1.80;;;;;;;20.31;88.10;99825.63;4993597;28;20039;-75
2023/07/04 10:58:33;;;;;;;11.27;1.80;;;;;;;20.10;88.38;99836.75;5049972;28;20121;-74
2023/07/04 11:00:58;;;;;;;7.57;1.60;;;;;;;19.94;88.48;99837.97;5043951;28;20023;-74
2023/07/04 11:03:36;;;;;;;9.85;1.98;;;;;;;19.65;88.99;99852.34;5040811;28;20037;-74
2023/07/04 11:06:08;;;;;;;8.32;1.55;;;;;;;19.29;90.10;99842.69;4983995;28;20122;-74
2023/07/04 11:08:35;;;;;;;10.43;1.95;;;;;;;19.03;90.82;99840.06;5018014;28;20037;-75
2023/07/04 11:11:08;;;;;;;10.68;1.80;;;;;;;18.72;92.81;99883.78;5065761;28;20020;-75
2023/07/04 11:13:35;;;;;;;12.32;2.28;;;;;;;18.61;94.05;99879.41;5054857;28;20050;-76
2023/07/04 11:16:06;;;;;;;7.60;1.88;;;;;;;18.66;94.29;99865.78;5065599;28;20024;-76
2023/07/04 11:18:39;;;;;;;13.38;2.58;;;;;;;18.78;94.86;99877.22;5029545;28;20027;-77
2023/07/04 11:21:15;;;;;;;17.23;2.25;;;;;;;18.85;94.45;99855.13;4980193;28;20114;-74
2023/07/04 11:23:54;;;;;;;10.98;2.30;;;;;;;18.94;94.68;99875.28;5050495;28;20030;-78
2023/07/04 11:26:40;;;;;;;15.55;2.45;;;;;;;18.95;94.70;99870.66;5054391;28;20066;-77
2023/07/04 11:29:18;;;;;;;17.50;2.90;;;;;;;18.92;95.06;99871.19;5048257;28;20019;-77
2023/07/04 11:32:04;;;;;;;11.48;1.95;;;;;;;19.08;95.29;99878.25;4979462;28;20038;-77
2023/07/04 11:34:43;;;;;;;12.35;2.58;;;;;;;19.38;94.34;99874.56;4978987;28;20026;-77